sensor_id;sensor_type;location;lat;lon;timestamp;pressure;altitude;pressure_sealevel;temperature;humidity
11114;BME280;5610;52.154;9.198;2024-03-06T00:01:53;100965.66;;;6.78;100.00
11114;BME280;5610;52.154;9.198;2024-03-06T00:04:39;100962.69;;;6.86;100.00
11114;BME280;5610;52.154;9.198;2024-03-06T00:07:24;100968.06;;;6.84;100.00
11114;BME280;5610;52.154;9.198;2024-03-06T00:10:10;100979.53;;;6.85;100.00
11114;BME280;5610;52.154;9.198;2024-03-06T00:12:55;100976.66;;;6.89;100.00
11114;BME280;5610;52.154;9.198;2024-03-06T00:15:40;100979.88;;;6.98;100.00
11114;BME280;5610;52.154;9.198;2024-03-06T00:18:27;100982.31;;;7.02;100.00
11114;BME280;5610;52.154;9.198;2024-03-06T00:21:12;100987.50;;;7.05;100.00
11114;BME280;5610;52.154;9.198;2024-03-06T00:23:57;100984.00;;;7.05;100.00
11114;BME280;5610;52.154;9.198;2024-03-06T00:26:45;100987.31;;;6.88;100.00
11114;BME280;5610;52.154;9.198;2024-03-06T00:29:31;100996.63;;;6.98;100.00
11114;BME280;5610;52.154;9.198;2024-03-06T00:32:16;100995.03;;;6.94;100.00
11114;BME280;5610;52.154;9.198;2024-03-06T00:35:04;100996.81;;;6.94;100.00
11114;BME280;5610;52.154;9.198;2024-03-06T00:37:49;101003.84;;;6.95;100.00
11114;BME280;5610;52.154;9.198;2024-03-06T00:40:34;101005.63;;;6.94;100.00
11114;BME280;5610;52.154;9.198;2024-03-06T00:43:19;101017.06;;;6.95;100.00
11114;BME280;5610;52.154;9.198;2024-03-06T00:46:04;101015.28;;;6.95;100.00
11114;BME280;5610;52.154;9.198;2024-03-06T00:48:49;101017.16;;;6.93;100.00
11114;BME280;5610;52.154;9.198;2024-03-06T00:51:35;101021.53;;;6.94;100.00
11114;BME280;5610;52.154;9.198;2024-03-06T00:54:21;101031.97;;;6.97;100.00
11114;BME280;5610;52.154;9.198;2024-03-06T00:57:06;101030.88;;;7.03;100.00
11114;BME280;5610;52.154;9.198;2024-03-06T00:59:51;101024.72;;;7.02;100.00
11114;BME280;5610;52.154;9.198;2024-03-06T01:02:36;101029.53;;;6.93;100.00
11114;BME280;5610;52.154;9.198;2024-03-06T01:05:21;101037.25;;;6.99;100.00
11114;BME280;5610;52.154;9.198;2024-03-06T01:08:08;101029.22;;;7.00;100.00
11114;BME280;5610;52.154;9.198;2024-03-06T01:10:54;101035.31;;;7.02;100.00
11114;BME280;5610;52.154;9.198;2024-03-06T01:13:39;101042.34;;;7.03;100.00
11114;BME280;5610;52.154;9.198;2024-03-06T01:16:24;101049.50;;;7.01;100.00
11114;BME280;5610;52.154;9.198;2024-03-06T01:19:09;101046.78;;;7.03;100.00
11114;BME280;5610;52.154;9.198;2024-03-06T01:21:55;101047.78;;;7.00;100.00
11114;BME280;5610;52.154;9.198;2024-03-06T01:24:41;101043.50;;;6.96;100.00
11114;BME280;5610;52.154;9.198;2024-03-06T01:27:26;101054.78;;;7.01;100.00
11114;BME280;5610;52.154;9.198;2024-03-06T01:30:12;101050.59;;;6.96;100.00
11114;BME280;5610;52.154;9.198;2024-03-06T01:32:57;101050.41;;;7.00;100.00
11114;BME280;5610;52.154;9.198;2024-03-06T01:35:42;101052.13;;;7.01;100.00
11114;BME280;5610;52.154;9.198;2024-03-06T01:38:27;101052.13;;;7.01;100.00
11114;BME280;5610;52.154;9.198;2024-03-06T01:41:14;101047.31;;;6.89;100.00
11114;BME280;5610;52.154;9.198;2024-03-06T01:43:59;101058.84;;;6.88;100.00
11114;BME280;5610;52.154;9.198;2024-03-06T01:46:45;101048.31;;;6.86;100.00
11114;BME280;5610;52.154;9.198;2024-03-06T01:49:31;101062.44;;;6.87;100.00
11114;BME280;5610;52.154;9.198;2024-03-06T01:52:17;101062.34;;;6.88;100.00
11114;BME280;5610;52.154;9.198;2024-03-06T01:55:05;101059.84;;;6.85;100.00
11114;BME280;5610;52.154;9.198;2024-03-06T01:57:52;101059.84;;;6.85;100.00
11114;BME280;5610;52.154;9.198;2024-03-06T02:00:38;101063.41;;;6.84;100.00
11114;BME280;5610;52.154;9.198;2024-03-06T02:03:24;101058.84;;;6.88;100.00
11114;BME280;5610;52.154;9.198;2024-03-06T02:06:10;101070.31;;;6.88;100.00
11114;BME280;5610;52.154;9.198;2024-03-06T02:08:56;101061.31;;;6.93;100.00
11114;BME280;5610;52.154;9.198;2024-03-06T02:11:41;101060.41;;;6.94;100.00
11114;BME280;5610;52.154;9.198;2024-03-06T02:14:28;101063.03;;;6.94;100.00
11114;BME280;5610;52.154;9.198;2024-03-06T02:17:14;101056.88;;;6.93;100.00
11114;BME280;5610;52.154;9.198;2024-03-06T02:19:59;101055.97;;;6.94;100.00
11114;BME280;5610;52.154;9.198;2024-03-06T02:22:46;101060.47;;;6.92;100.00
11114;BME280;5610;52.154;9.198;2024-03-06T02:25:31;101057.75;;;6.94;100.00
11114;BME280;5610;52.154;9.198;2024-03-06T02:28:17;101056.94;;;6.92;100.00
11114;BME280;5610;52.154;9.198;2024-03-06T02:31:03;101062.34;;;6.88;100.00
11114;BME280;5610;52.154;9.198;2024-03-06T02:33:50;101063.34;;;6.86;100.00
11114;BME280;5610;52.154;9.198;2024-03-06T02:36:36;101062.56;;;6.84;100.00
11114;BME280;5610;52.154;9.198;2024-03-06T02:39:22;101069.44;;;6.88;100.00
11114;BME280;5610;52.154;9.198;2024-03-06T02:42:08;101066.31;;;6.78;100.00
11114;BME280;5610;52.154;9.198;2024-03-06T02:44:53;101069.88;;;6.77;100.00
11114;BME280;5610;52.154;9.198;2024-03-06T02:47:38;101069.59;;;6.61;100.00
11114;BME280;5610;52.154;9.198;2024-03-06T02:50:23;101071.28;;;6.64;100.00
11114;BME280;5610;52.154;9.198;2024-03-06T02:53:08;101066.94;;;6.61;100.00
11114;BME280;5610;52.154;9.198;2024-03-06T02:55:55;101064.13;;;6.66;100.00
11114;BME280;5610;52.154;9.198;2024-03-06T02:58:40;101068.31;;;6.72;100.00
11114;BME280;5610;52.154;9.198;2024-03-06T03:01:25;101067.09;;;6.80;100.00
11114;BME280;5610;52.154;9.198;2024-03-06T03:04:10;101069.75;;;6.80;100.00
11114;BME280;5610;52.154;9.198;2024-03-06T03:06:55;101072.25;;;6.83;100.00
11114;BME280;5610;52.154;9.198;2024-03-06T03:09:40;101076.53;;;6.87;100.00
11114;BME280;5610;52.154;9.198;2024-03-06T03:12:27;101079.94;;;6.91;100.00
11114;BME280;5610;52.154;9.198;2024-03-06T03:15:12;101077.31;;;6.89;100.00
11114;BME280;5610;52.154;9.198;2024-03-06T03:17:57;101088.50;;;6.98;100.00
11114;BME280;5610;52.154;9.198;2024-03-06T03:20:42;101084.94;;;6.99;100.00
11114;BME280;5610;52.154;9.198;2024-03-06T03:23:27;101091.09;;;6.99;100.00
11114;BME280;5610;52.154;9.198;2024-03-06T03:26:13;101090.88;;;7.04;100.00
11114;BME280;5610;52.154;9.198;2024-03-06T03:28:59;101092.69;;;7.03;100.00
11114;BME280;5610;52.154;9.198;2024-03-06T03:31:45;101093.75;;;6.99;100.00
11114;BME280;5610;52.154;9.198;2024-03-06T03:34:30;101101.63;;;7.01;100.00
11114;BME280;5610;52.154;9.198;2024-03-06T03:37:15;101094.53;;;7.01;100.00
11114;BME280;5610;52.154;9.198;2024-03-06T03:40:01;101102.78;;;6.94;100.00
11114;BME280;5610;52.154;9.198;2024-03-06T03:42:47;101104.34;;;6.99;100.00
11114;BME280;5610;52.154;9.198;2024-03-06T03:45:34;101104.13;;;7.04;100.00
11114;BME280;5610;52.154;9.198;2024-03-06T03:48:19;101106.69;;;7.07;100.00
11114;BME280;5610;52.154;9.198;2024-03-06T03:51:04;101112.78;;;7.09;100.00
11114;BME280;5610;52.154;9.198;2024-03-06T03:53:50;101106.22;;;6.96;100.00
11114;BME280;5610;52.154;9.198;2024-03-06T03:56:37;101104.34;;;6.99;100.00
11114;BME280;5610;52.154;9.198;2024-03-06T03:59:22;101108.63;;;7.02;100.00
11114;BME280;5610;52.154;9.198;2024-03-06T04:02:09;101114.94;;;6.99;100.00
11114;BME280;5610;52.154;9.198;2024-03-06T04:04:56;101116.59;;;7.02;100.00
11114;BME280;5610;52.154;9.198;2024-03-06T04:07:41;101112.94;;;7.04;100.00
11114;BME280;5610;52.154;9.198;2024-03-06T04:10:26;101120.22;;;6.99;100.00
11114;BME280;5610;52.154;9.198;2024-03-06T04:13:11;101121.16;;;6.98;100.00
11114;BME280;5610;52.154;9.198;2024-03-06T04:15:56;101124.78;;;6.96;100.00
11114;BME280;5610;52.154;9.198;2024-03-06T04:18:43;101124.59;;;7.00;100.00
11114;BME280;5610;52.154;9.198;2024-03-06T04:21:29;101121.88;;;7.02;100.00
11114;BME280;5610;52.154;9.198;2024-03-06T04:24:14;101127.31;;;6.99;100.00
11114;BME280;5610;52.154;9.198;2024-03-06T04:26:59;101131.50;;;7.04;100.00
11114;BME280;5610;52.154;9.198;2024-03-06T04:29:45;101138.88;;;6.96;100.00
11114;BME280;5610;52.154;9.198;2024-03-06T04:32:30;101143.03;;;7.03;100.00
11114;BME280;5610;52.154;9.198;2024-03-06T04:35:17;101139.56;;;7.01;100.00
11114;BME280;5610;52.154;9.198;2024-03-06T04:38:02;101139.66;;;7.00;100.00
11114;BME280;5610;52.154;9.198;2024-03-06T04:40:48;101142.97;;;7.05;100.00
11114;BME280;5610;52.154;9.198;2024-03-06T04:43:33;101142.97;;;7.05;100.00
11114;BME280;5610;52.154;9.198;2024-03-06T04:46:19;101148.16;;;7.08;100.00
11114;BME280;5610;52.154;9.198;2024-03-06T04:49:04;101141.00;;;7.10;100.00
11114;BME280;5610;52.154;9.198;2024-03-06T04:51:50;101152.47;;;7.10;100.00
11114;BME280;5610;52.154;9.198;2024-03-06T04:54:36;101156.81;;;7.11;100.00
11114;BME280;5610;52.154;9.198;2024-03-06T04:57:21;101156.78;;;7.13;100.00
11114;BME280;5610;52.154;9.198;2024-03-06T05:00:07;101156.81;;;7.11;100.00
11114;BME280;5610;52.154;9.198;2024-03-06T05:02:52;101162.03;;;7.14;100.00
11114;BME280;5610;52.154;9.198;2024-03-06T05:05:39;101159.38;;;7.14;100.00
11114;BME280;5610;52.154;9.198;2024-03-06T05:08:26;101157.59;;;7.15;100.00
11114;BME280;5610;52.154;9.198;2024-03-06T05:11:11;101162.25;;;7.08;100.00
11114;BME280;5610;52.154;9.198;2024-03-06T05:13:57;101162.97;;;6.90;100.00
11114;BME280;5610;52.154;9.198;2024-03-06T05:16:43;101163.78;;;6.92;100.00
11114;BME280;5610;52.154;9.198;2024-03-06T05:19:28;101171.50;;;6.98;100.00
11114;BME280;5610;52.154;9.198;2024-03-06T05:22:15;101173.16;;;7.01;100.00
11114;BME280;5610;52.154;9.198;2024-03-06T05:25:02;101168.78;;;7.00;100.00
11114;BME280;5610;52.154;9.198;2024-03-06T05:27:49;101181.75;;;7.07;100.00
11114;BME280;5610;52.154;9.198;2024-03-06T05:30:34;101177.16;;;7.11;100.00
11114;BME280;5610;52.154;9.198;2024-03-06T05:33:19;101185.81;;;7.16;100.00
11114;BME280;5610;52.154;9.198;2024-03-06T05:36:06;101184.09;;;7.15;100.00
11114;BME280;5610;52.154;9.198;2024-03-06T05:38:51;101191.91;;;7.18;100.00
11114;BME280;5610;52.154;9.198;2024-03-06T05:41:38;101189.25;;;7.18;100.00
11114;BME280;5610;52.154;9.198;2024-03-06T05:44:23;101187.47;;;7.19;100.00
11114;BME280;5610;52.154;9.198;2024-03-06T05:47:08;101203.22;;;7.23;100.00
11114;BME280;5610;52.154;9.198;2024-03-06T05:49:53;101201.34;;;7.25;100.00
11114;BME280;5610;52.154;9.198;2024-03-06T05:52:38;101195.19;;;7.25;100.00
11114;BME280;5610;52.154;9.198;2024-03-06T05:55:23;101201.34;;;7.25;100.00
11114;BME280;5610;52.154;9.198;2024-03-06T05:58:10;101207.47;;;7.27;100.00
11114;BME280;5610;52.154;9.198;2024-03-06T06:00:55;101212.66;;;7.30;100.00
11114;BME280;5610;52.154;9.198;2024-03-06T06:03:41;101213.56;;;7.29;100.00
11114;BME280;5610;52.154;9.198;2024-03-06T06:06:26;101215.38;;;7.29;100.00
11114;BME280;5610;52.154;9.198;2024-03-06T06:09:11;101222.47;;;7.28;100.00
11114;BME280;5610;52.154;9.198;2024-03-06T06:11:59;101228.72;;;7.26;100.00
11114;BME280;5610;52.154;9.198;2024-03-06T06:14:45;101226.91;;;7.28;100.00
11114;BME280;5610;52.154;9.198;2024-03-06T06:17:31;101230.28;;;7.31;100.00
11114;BME280;5610;52.154;9.198;2024-03-06T06:20:16;101233.00;;;7.30;100.00
11114;BME280;5610;52.154;9.198;2024-03-06T06:23:02;101239.16;;;7.30;100.00
11114;BME280;5610;52.154;9.198;2024-03-06T06:25:47;101239.91;;;7.34;100.00
11114;BME280;5610;52.154;9.198;2024-03-06T06:28:32;101246.88;;;7.36;100.00
11114;BME280;5610;52.154;9.198;2024-03-06T06:31:20;101253.97;;;7.36;100.00
11114;BME280;5610;52.154;9.198;2024-03-06T06:34:05;101251.41;;;7.33;100.00
11114;BME280;5610;52.154;9.198;2024-03-06T06:36:50;101260.19;;;7.35;100.00
11114;BME280;5610;52.154;9.198;2024-03-06T06:39:36;101269.81;;;7.37;100.00
11114;BME280;5610;52.154;9.198;2024-03-06T06:42:22;101263.59;;;7.38;100.00
11114;BME280;5610;52.154;9.198;2024-03-06T06:45:08;101270.38;;;7.46;100.00
11114;BME280;5610;52.154;9.198;2024-03-06T06:47:56;101274.75;;;7.47;100.00
11114;BME280;5610;52.154;9.198;2024-03-06T06:50:41;101277.53;;;7.43;100.00
11114;BME280;5610;52.154;9.198;2024-03-06T06:53:26;101276.38;;;7.51;100.00
11114;BME280;5610;52.154;9.198;2024-03-06T06:56:11;101283.09;;;7.59;100.00
11114;BME280;5610;52.154;9.198;2024-03-06T06:58:57;101279.22;;;7.68;100.00
11114;BME280;5610;52.154;9.198;2024-03-06T07:01:42;101285.16;;;7.75;100.00
11114;BME280;5610;52.154;9.198;2024-03-06T07:04:28;101283.97;;;7.82;100.00
11114;BME280;5610;52.154;9.198;2024-03-06T07:07:14;101286.16;;;7.94;100.00
11114;BME280;5610;52.154;9.198;2024-03-06T07:10:00;101290.28;;;8.01;100.00
11114;BME280;5610;52.154;9.198;2024-03-06T07:12:46;101290.91;;;8.08;100.00
11114;BME280;5610;52.154;9.198;2024-03-06T07:15:32;101297.75;;;8.13;100.00
11114;BME280;5610;52.154;9.198;2024-03-06T07:18:17;101298.69;;;8.12;100.00
11114;BME280;5610;52.154;9.198;2024-03-06T07:21:04;101306.91;;;8.06;100.00
11114;BME280;5610;52.154;9.198;2024-03-06T07:23:49;101300.97;;;7.99;100.00
11114;BME280;5610;52.154;9.198;2024-03-06T07:26:34;101310.41;;;7.85;100.00
11114;BME280;5610;52.154;9.198;2024-03-06T07:29:20;101322.34;;;7.73;100.00
11114;BME280;5610;52.154;9.198;2024-03-06T07:32:05;101321.66;;;7.91;100.00
11114;BME280;5610;52.154;9.198;2024-03-06T07:34:51;101323.06;;;8.00;100.00
11114;BME280;5610;52.154;9.198;2024-03-06T07:37:37;101327.50;;;7.99;100.00
11114;BME280;5610;52.154;9.198;2024-03-06T07:40:22;101330.53;;;8.12;100.00
11114;BME280;5610;52.154;9.198;2024-03-06T07:43:07;101334.69;;;8.19;100.00
11114;BME280;5610;52.154;9.198;2024-03-06T07:45:52;101344.22;;;8.23;100.00
11114;BME280;5610;52.154;9.198;2024-03-06T07:48:38;101345.06;;;8.25;100.00
11114;BME280;5610;52.154;9.198;2024-03-06T07:51:23;101354.53;;;8.31;100.00
11114;BME280;5610;52.154;9.198;2024-03-06T07:54:09;101351.72;;;8.36;100.00
11114;BME280;5610;52.154;9.198;2024-03-06T07:56:55;101353.34;;;8.40;100.00
11114;BME280;5610;52.154;9.198;2024-03-06T07:59:40;101362.81;;;8.45;100.00
11114;BME280;5610;52.154;9.198;2024-03-06T08:02:25;101358.28;;;8.49;100.00
11114;BME280;5610;52.154;9.198;2024-03-06T08:05:10;101360.78;;;8.52;100.00
11114;BME280;5610;52.154;9.198;2024-03-06T08:07:56;101365.06;;;8.56;100.00
11114;BME280;5610;52.154;9.198;2024-03-06T08:10:42;101376.22;;;8.64;100.00
11114;BME280;5610;52.154;9.198;2024-03-06T08:13:28;101367.81;;;8.75;100.00
11114;BME280;5610;52.154;9.198;2024-03-06T08:16:14;101373.78;;;8.80;100.00
11114;BME280;5610;52.154;9.198;2024-03-06T08:18:59;101373.53;;;8.86;100.00
11114;BME280;5610;52.154;9.198;2024-03-06T08:21:45;101376.84;;;8.91;100.00
11114;BME280;5610;52.154;9.198;2024-03-06T08:24:30;101374.88;;;8.96;100.00
11114;BME280;5610;52.154;9.198;2024-03-06T08:27:16;101388.41;;;8.90;100.00
11114;BME280;5610;52.154;9.198;2024-03-06T08:30:02;101390.00;;;8.94;100.00
11114;BME280;5610;52.154;9.198;2024-03-06T08:32:48;101396.94;;;8.98;100.00
11114;BME280;5610;52.154;9.198;2024-03-06T08:35:34;101393.06;;;9.05;100.00
11114;BME280;5610;52.154;9.198;2024-03-06T08:38:19;101394.53;;;9.13;100.00
11114;BME280;5610;52.154;9.198;2024-03-06T08:41:04;101395.06;;;9.21;100.00
11114;BME280;5610;52.154;9.198;2024-03-06T08:43:51;101396.31;;;9.32;100.00
11114;BME280;5610;52.154;9.198;2024-03-06T08:46:36;101400.16;;;9.46;100.00
11114;BME280;5610;52.154;9.198;2024-03-06T08:49:21;101406.78;;;9.56;100.00
11114;BME280;5610;52.154;9.198;2024-03-06T08:52:07;101409.34;;;9.59;100.00
11114;BME280;5610;52.154;9.198;2024-03-06T08:54:53;101412.84;;;9.59;100.00
11114;BME280;5610;52.154;9.198;2024-03-06T08:57:39;101408.97;;;9.67;100.00
11114;BME280;5610;52.154;9.198;2024-03-06T09:00:26;101412.28;;;9.72;100.00
11114;BME280;5610;52.154;9.198;2024-03-06T09:03:11;101423.78;;;9.72;100.00
11114;BME280;5610;52.154;9.198;2024-03-06T09:05:56;101426.66;;;9.68;100.00
11114;BME280;5610;52.154;9.198;2024-03-06T09:08:43;101424.78;;;9.70;100.00
11114;BME280;5610;52.154;9.198;2024-03-06T09:11:28;101427.72;;;9.63;100.00
11114;BME280;5610;52.154;9.198;2024-03-06T09:14:14;101423.28;;;9.64;100.00
11114;BME280;5610;52.154;9.198;2024-03-06T09:17:00;101430.91;;;9.72;100.00
11114;BME280;5610;52.154;9.198;2024-03-06T09:19:46;101439.97;;;9.68;100.00
11114;BME280;5610;52.154;9.198;2024-03-06T09:22:32;101446.97;;;9.50;100.00
11114;BME280;5610;52.154;9.198;2024-03-06T09:25:17;101452.50;;;9.25;100.00
11114;BME280;5610;52.154;9.198;2024-03-06T09:28:03;101450.34;;;8.92;100.00
11114;BME280;5610;52.154;9.198;2024-03-06T09:30:49;101454.16;;;9.07;100.00
11114;BME280;5610;52.154;9.198;2024-03-06T09:33:35;101463.13;;;9.04;100.00
11114;BME280;5610;52.154;9.198;2024-03-06T09:36:21;101456.81;;;9.07;100.00
11114;BME280;5610;52.154;9.198;2024-03-06T09:39:06;101462.00;;;9.10;100.00
11114;BME280;5610;52.154;9.198;2024-03-06T09:41:53;101467.13;;;9.15;100.00
11114;BME280;5610;52.154;9.198;2024-03-06T09:44:40;101470.38;;;9.21;100.00
11114;BME280;5610;52.154;9.198;2024-03-06T09:47:27;101475.50;;;9.26;100.00
11114;BME280;5610;52.154;9.198;2024-03-06T09:50:22;101471.91;;;9.27;100.00
11114;BME280;5610;52.154;9.198;2024-03-06T09:53:10;101477.91;;;9.32;100.00
11114;BME280;5610;52.154;9.198;2024-03-06T09:55:57;101476.97;;;9.33;100.00
11114;BME280;5610;52.154;9.198;2024-03-06T09:58:44;101479.91;;;9.27;100.00
11114;BME280;5610;52.154;9.198;2024-03-06T10:01:31;101487.53;;;9.34;100.00
11114;BME280;5610;52.154;9.198;2024-03-06T10:04:17;101479.19;;;9.01;100.00
11114;BME280;5610;52.154;9.198;2024-03-06T10:07:04;101489.31;;;9.14;100.00
11114;BME280;5610;52.154;9.198;2024-03-06T10:09:51;101482.22;;;9.34;100.00
11114;BME280;5610;52.154;9.198;2024-03-06T10:12:37;101484.16;;;9.31;100.00
11114;BME280;5610;52.154;9.198;2024-03-06T10:15:21;101480.63;;;9.51;100.00
11114;BME280;5610;52.154;9.198;2024-03-06T10:18:11;101493.31;;;9.64;100.00
11114;BME280;5610;52.154;9.198;2024-03-06T10:20:57;101500.31;;;9.67;100.00
11114;BME280;5610;52.154;9.198;2024-03-06T10:23:46;101500.25;;;9.69;100.00
11114;BME280;5610;52.154;9.198;2024-03-06T10:26:31;101501.38;;;9.63;100.00
11114;BME280;5610;52.154;9.198;2024-03-06T10:29:18;101503.50;;;9.75;100.00
11114;BME280;5610;52.154;9.198;2024-03-06T10:32:03;101500.31;;;9.87;100.00
11114;BME280;5610;52.154;9.198;2024-03-06T10:34:49;101504.09;;;9.82;100.00
11114;BME280;5610;52.154;9.198;2024-03-06T10:37:34;101511.66;;;9.91;100.00
11114;BME280;5610;52.154;9.198;2024-03-06T10:40:22;101510.81;;;9.90;100.00
11114;BME280;5610;52.154;9.198;2024-03-06T10:43:08;101515.78;;;9.98;100.00
11114;BME280;5610;52.154;9.198;2024-03-06T10:46:00;101511.19;;;10.02;100.00
11114;BME280;5610;52.154;9.198;2024-03-06T10:48:48;101520.56;;;10.10;100.00
11114;BME280;5610;52.154;9.198;2024-03-06T10:51:36;101516.94;;;10.32;100.00
11114;BME280;5610;52.154;9.198;2024-03-06T10:57:12;101510.81;;;10.67;100.00
11114;BME280;5610;52.154;9.198;2024-03-06T10:59:59;101508.53;;;10.77;100.00
11114;BME280;5610;52.154;9.198;2024-03-06T11:02:46;101515.09;;;10.89;100.00
11114;BME280;5610;52.154;9.198;2024-03-06T11:05:32;101523.56;;;10.97;100.00
11114;BME280;5610;52.154;9.198;2024-03-06T11:08:18;101519.09;;;10.97;100.00
11114;BME280;5610;52.154;9.198;2024-03-06T11:11:19;101518.41;;;11.11;100.00
11114;BME280;5610;52.154;9.198;2024-03-06T11:14:07;101525.38;;;10.96;100.00
11114;BME280;5610;52.154;9.198;2024-03-06T11:16:57;101529.34;;;11.07;100.00
11114;BME280;5610;52.154;9.198;2024-03-06T11:20:14;101520.44;;;10.89;100.00
11114;BME280;5610;52.154;9.198;2024-03-06T11:23:04;101524.00;;;11.07;100.00
11114;BME280;5610;52.154;9.198;2024-03-06T11:25:57;101530.97;;;11.09;100.00
11114;BME280;5610;52.154;9.198;2024-03-06T11:28:43;101533.25;;;10.99;100.00
11114;BME280;5610;52.154;9.198;2024-03-06T11:31:36;101525.03;;;10.85;100.00
11114;BME280;5610;52.154;9.198;2024-03-06T11:34:22;101531.53;;;10.80;100.00
11114;BME280;5610;52.154;9.198;2024-03-06T11:37:08;101531.28;;;11.03;100.00
11114;BME280;5610;52.154;9.198;2024-03-06T11:39:59;101528.72;;;11.19;100.00
11114;BME280;5610;52.154;9.198;2024-03-06T11:42:45;101532.72;;;11.27;100.00
11114;BME280;5610;52.154;9.198;2024-03-06T11:45:43;101536.78;;;11.17;100.00
11114;BME280;5610;52.154;9.198;2024-03-06T11:48:30;101530.28;;;11.23;100.00
11114;BME280;5610;52.154;9.198;2024-03-06T11:51:16;101526.06;;;11.36;100.00
11114;BME280;5610;52.154;9.198;2024-03-06T11:54:05;101526.31;;;11.49;100.00
11114;BME280;5610;52.154;9.198;2024-03-06T11:56:51;101532.66;;;11.64;100.00
11114;BME280;5610;52.154;9.198;2024-03-06T11:59:37;101529.41;;;11.74;100.00
11114;BME280;5610;52.154;9.198;2024-03-06T12:02:23;101521.91;;;11.82;100.00
11114;BME280;5610;52.154;9.198;2024-03-06T12:05:10;101530.53;;;11.88;100.00
11114;BME280;5610;52.154;9.198;2024-03-06T12:07:55;101530.75;;;12.00;100.00
11114;BME280;5610;52.154;9.198;2024-03-06T12:10:40;101532.19;;;11.90;100.00
11114;BME280;5610;52.154;9.198;2024-03-06T12:13:26;101536.50;;;11.93;100.00
11114;BME280;5610;52.154;9.198;2024-03-06T12:16:11;101541.75;;;11.94;100.00
11114;BME280;5610;52.154;9.198;2024-03-06T12:18:57;101538.88;;;11.99;100.00
11114;BME280;5610;52.154;9.198;2024-03-06T12:21:47;101549.78;;;11.94;100.00
11114;BME280;5610;52.154;9.198;2024-03-06T12:24:32;101548.19;;;11.90;100.00
11114;BME280;5610;52.154;9.198;2024-03-06T12:27:22;101557.25;;;11.88;100.00
11114;BME280;5610;52.154;9.198;2024-03-06T12:30:11;101552.94;;;11.85;100.00
11114;BME280;5610;52.154;9.198;2024-03-06T12:32:57;101547.09;;;11.94;100.00
11114;BME280;5610;52.154;9.198;2024-03-06T12:35:42;101555.56;;;12.02;100.00
11114;BME280;5610;52.154;9.198;2024-03-06T12:38:29;101543.66;;;12.25;100.00
11114;BME280;5610;52.154;9.198;2024-03-06T12:41:14;101545.94;;;12.49;100.00
11114;BME280;5610;52.154;9.198;2024-03-06T12:44:00;101541.66;;;12.62;100.00
11114;BME280;5610;52.154;9.198;2024-03-06T12:46:47;101538.53;;;12.85;100.00
11114;BME280;5610;52.154;9.198;2024-03-06T12:49:33;101539.38;;;13.02;100.00
11114;BME280;5610;52.154;9.198;2024-03-06T12:52:18;101533.94;;;13.03;94.81
11114;BME280;5610;52.154;9.198;2024-03-06T12:55:06;101544.47;;;13.22;96.39
11114;BME280;5610;52.154;9.198;2024-03-06T12:57:51;101538.63;;;13.45;94.82
11114;BME280;5610;52.154;9.198;2024-03-06T13:00:37;101537.53;;;13.64;88.36
11114;BME280;5610;52.154;9.198;2024-03-06T13:03:23;101537.69;;;13.91;86.18
11114;BME280;5610;52.154;9.198;2024-03-06T13:06:08;101534.81;;;14.08;86.08
11114;BME280;5610;52.154;9.198;2024-03-06T13:08:53;101533.69;;;14.12;84.37
11114;BME280;5610;52.154;9.198;2024-03-06T13:11:41;101532.44;;;14.04;82.13
11114;BME280;5610;52.154;9.198;2024-03-06T13:14:27;101532.97;;;13.94;85.04
11114;BME280;5610;52.154;9.198;2024-03-06T13:17:12;101533.56;;;13.85;82.90
11114;BME280;5610;52.154;9.198;2024-03-06T13:19:57;101536.22;;;13.71;86.17
11114;BME280;5610;52.154;9.198;2024-03-06T13:22:42;101536.44;;;13.52;84.52
11114;BME280;5610;52.154;9.198;2024-03-06T13:25:28;101539.44;;;13.32;86.94
11114;BME280;5610;52.154;9.198;2024-03-06T13:28:16;101533.94;;;13.19;86.82
11114;BME280;5610;52.154;9.198;2024-03-06T13:31:02;101540.75;;;13.09;89.85
11114;BME280;5610;52.154;9.198;2024-03-06T13:33:47;101540.84;;;13.07;90.96
11114;BME280;5610;52.154;9.198;2024-03-06T13:36:34;101539.22;;;13.05;92.52
11114;BME280;5610;52.154;9.198;2024-03-06T13:39:19;101541.09;;;13.03;93.91
11114;BME280;5610;52.154;9.198;2024-03-06T13:42:05;101541.69;;;13.08;93.92
11114;BME280;5610;52.154;9.198;2024-03-06T13:44:53;101542.31;;;13.13;92.33
11114;BME280;5610;52.154;9.198;2024-03-06T13:47:40;101545.34;;;13.07;90.84
11114;BME280;5610;52.154;9.198;2024-03-06T13:50:26;101548.19;;;13.04;89.82
11114;BME280;5610;52.154;9.198;2024-03-06T13:53:13;101546.09;;;13.09;89.97
11114;BME280;5610;52.154;9.198;2024-03-06T13:55:58;101550.06;;;13.33;90.08
11114;BME280;5610;52.154;9.198;2024-03-06T13:58:44;101558.00;;;13.65;88.58
11114;BME280;5610;52.154;9.198;2024-03-06T14:01:30;101545.34;;;13.97;83.73
11114;BME280;5610;52.154;9.198;2024-03-06T14:04:15;101544.03;;;14.18;80.98
11114;BME280;5610;52.154;9.198;2024-03-06T14:07:02;101558.41;;;14.46;79.61
11114;BME280;5610;52.154;9.198;2024-03-06T14:09:48;101550.63;;;14.55;74.98
11114;BME280;5610;52.154;9.198;2024-03-06T14:12:33;101556.06;;;14.82;73.02
11114;BME280;5610;52.154;9.198;2024-03-06T14:15:19;101551.09;;;15.30;72.68
11114;BME280;5610;52.154;9.198;2024-03-06T14:18:05;101544.34;;;15.77;70.08
11114;BME280;5610;52.154;9.198;2024-03-06T14:20:51;101546.50;;;16.10;68.10
11114;BME280;5610;52.154;9.198;2024-03-06T14:23:36;101544.56;;;16.12;63.25
11114;BME280;5610;52.154;9.198;2024-03-06T14:26:21;101552.19;;;16.31;64.96
11114;BME280;5610;52.154;9.198;2024-03-06T14:29:07;101557.66;;;16.55;61.61
11114;BME280;5610;52.154;9.198;2024-03-06T14:31:53;101551.25;;;16.82;60.33
11114;BME280;5610;52.154;9.198;2024-03-06T14:34:40;101546.81;;;16.93;57.97
11114;BME280;5610;52.154;9.198;2024-03-06T14:37:27;101551.50;;;16.79;59.51
11114;BME280;5610;52.154;9.198;2024-03-06T14:40:12;101551.81;;;16.74;59.87
11114;BME280;5610;52.154;9.198;2024-03-06T14:42:57;101558.81;;;16.77;59.97